sensor_id;sensor_type;location;lat;lon;timestamp;temperature;humidity
19242;DHT22;9755;47.790;9.620;2022-08-19T00:01:31;17.40;99.90
19242;DHT22;9755;47.790;9.620;2022-08-19T00:04:02;17.40;99.90
19242;DHT22;9755;47.790;9.620;2022-08-19T00:06:30;17.40;99.90
19242;DHT22;9755;47.790;9.620;2022-08-19T00:08:58;17.40;99.90
19242;DHT22;9755;47.790;9.620;2022-08-19T00:11:26;17.40;99.90
19242;DHT22;9755;47.790;9.620;2022-08-19T00:13:54;17.30;99.90
19242;DHT22;9755;47.790;9.620;2022-08-19T00:16:24;17.30;99.90
19242;DHT22;9755;47.790;9.620;2022-08-19T00:18:51;17.40;99.90
19242;DHT22;9755;47.790;9.620;2022-08-19T00:21:18;17.40;99.90
19242;DHT22;9755;47.790;9.620;2022-08-19T00:23:45;17.50;99.90
19242;DHT22;9755;47.790;9.620;2022-08-19T00:26:13;17.40;99.90
19242;DHT22;9755;47.790;9.620;2022-08-19T00:28:40;17.40;99.90
19242;DHT22;9755;47.790;9.620;2022-08-19T00:31:08;17.40;99.90
19242;DHT22;9755;47.790;9.620;2022-08-19T00:33:37;17.40;99.90
19242;DHT22;9755;47.790;9.620;2022-08-19T00:36:07;17.40;99.90
19242;DHT22;9755;47.790;9.620;2022-08-19T00:38:36;17.40;99.90
19242;DHT22;9755;47.790;9.620;2022-08-19T00:41:09;17.40;99.90
19242;DHT22;9755;47.790;9.620;2022-08-19T00:43:37;17.40;99.90
19242;DHT22;9755;47.790;9.620;2022-08-19T00:46:04;17.30;99.90
19242;DHT22;9755;47.790;9.620;2022-08-19T00:48:32;17.40;99.90
19242;DHT22;9755;47.790;9.620;2022-08-19T00:51:01;17.30;99.90
19242;DHT22;9755;47.790;9.620;2022-08-19T00:53:31;17.20;99.90
19242;DHT22;9755;47.790;9.620;2022-08-19T00:56:01;17.20;99.90
19242;DHT22;9755;47.790;9.620;2022-08-19T00:58:33;17.10;99.90
19242;DHT22;9755;47.790;9.620;2022-08-19T01:01:02;17.10;99.90
19242;DHT22;9755;47.790;9.620;2022-08-19T01:03:30;17.10;99.90
19242;DHT22;9755;47.790;9.620;2022-08-19T01:05:57;17.10;99.90
19242;DHT22;9755;47.790;9.620;2022-08-19T01:08:27;17.00;99.90
19242;DHT22;9755;47.790;9.620;2022-08-19T01:10:57;17.00;99.90
19242;DHT22;9755;47.790;9.620;2022-08-19T01:13:28;17.00;99.90
19242;DHT22;9755;47.790;9.620;2022-08-19T01:15:59;17.00;99.90
19242;DHT22;9755;47.790;9.620;2022-08-19T01:18:28;16.90;99.90
19242;DHT22;9755;47.790;9.620;2022-08-19T01:20:58;16.90;99.90
19242;DHT22;9755;47.790;9.620;2022-08-19T01:23:28;16.90;99.90
19242;DHT22;9755;47.790;9.620;2022-08-19T01:26:11;16.90;99.90
19242;DHT22;9755;47.790;9.620;2022-08-19T01:28:39;16.90;99.90
19242;DHT22;9755;47.790;9.620;2022-08-19T01:31:09;16.90;99.90
19242;DHT22;9755;47.790;9.620;2022-08-19T01:33:38;16.90;99.90
19242;DHT22;9755;47.790;9.620;2022-08-19T01:36:07;17.00;99.90
19242;DHT22;9755;47.790;9.620;2022-08-19T01:38:38;16.90;99.90
19242;DHT22;9755;47.790;9.620;2022-08-19T01:41:06;16.80;99.90
19242;DHT22;9755;47.790;9.620;2022-08-19T01:43:33;16.80;99.90
19242;DHT22;9755;47.790;9.620;2022-08-19T01:46:01;16.80;99.90
19242;DHT22;9755;47.790;9.620;2022-08-19T01:48:33;16.80;99.90
19242;DHT22;9755;47.790;9.620;2022-08-19T01:51:00;16.80;99.90
19242;DHT22;9755;47.790;9.620;2022-08-19T01:53:28;16.80;99.90
19242;DHT22;9755;47.790;9.620;2022-08-19T01:55:57;16.80;99.90
19242;DHT22;9755;47.790;9.620;2022-08-19T01:58:27;16.80;99.90
19242;DHT22;9755;47.790;9.620;2022-08-19T02:00:57;16.70;99.90
19242;DHT22;9755;47.790;9.620;2022-08-19T02:03:24;16.70;99.90
19242;DHT22;9755;47.790;9.620;2022-08-19T02:05:55;16.70;99.90
19242;DHT22;9755;47.790;9.620;2022-08-19T02:08:23;16.70;99.90
19242;DHT22;9755;47.790;9.620;2022-08-19T02:10:50;16.70;99.90
19242;DHT22;9755;47.790;9.620;2022-08-19T02:13:19;16.60;99.90
19242;DHT22;9755;47.790;9.620;2022-08-19T02:15:46;16.60;99.90
19242;DHT22;9755;47.790;9.620;2022-08-19T02:18:13;16.60;99.90
19242;DHT22;9755;47.790;9.620;2022-08-19T02:20:42;16.50;99.90
19242;DHT22;9755;47.790;9.620;2022-08-19T02:23:11;16.50;99.90
19242;DHT22;9755;47.790;9.620;2022-08-19T02:25:38;16.50;99.90
19242;DHT22;9755;47.790;9.620;2022-08-19T02:28:06;16.50;99.90
19242;DHT22;9755;47.790;9.620;2022-08-19T02:30:34;16.50;99.90
19242;DHT22;9755;47.790;9.620;2022-08-19T02:33:01;16.50;99.90
19242;DHT22;9755;47.790;9.620;2022-08-19T02:35:29;16.50;99.90
19242;DHT22;9755;47.790;9.620;2022-08-19T02:37:56;16.50;99.90
19242;DHT22;9755;47.790;9.620;2022-08-19T02:40:41;16.50;99.90
19242;DHT22;9755;47.790;9.620;2022-08-19T02:43:15;16.50;99.90
19242;DHT22;9755;47.790;9.620;2022-08-19T02:45:43;16.40;99.90
19242;DHT22;9755;47.790;9.620;2022-08-19T02:48:11;16.50;99.90
19242;DHT22;9755;47.790;9.620;2022-08-19T02:50:39;16.50;99.90
19242;DHT22;9755;47.790;9.620;2022-08-19T02:53:06;16.50;99.90
19242;DHT22;9755;47.790;9.620;2022-08-19T02:55:34;16.40;99.90
19242;DHT22;9755;47.790;9.620;2022-08-19T02:58:01;16.40;99.90
19242;DHT22;9755;47.790;9.620;2022-08-19T03:00:28;16.40;99.90
19242;DHT22;9755;47.790;9.620;2022-08-19T03:02:57;16.40;99.90
19242;DHT22;9755;47.790;9.620;2022-08-19T03:05:26;16.40;99.90
19242;DHT22;9755;47.790;9.620;2022-08-19T03:07:53;16.30;99.90
19242;DHT22;9755;47.790;9.620;2022-08-19T03:10:21;16.30;99.90
19242;DHT22;9755;47.790;9.620;2022-08-19T03:12:48;16.30;99.90
19242;DHT22;9755;47.790;9.620;2022-08-19T03:15:15;16.40;99.90
19242;DHT22;9755;47.790;9.620;2022-08-19T03:17:42;16.40;99.90
19242;DHT22;9755;47.790;9.620;2022-08-19T03:20:11;16.40;99.90
19242;DHT22;9755;47.790;9.620;2022-08-19T03:22:38;16.40;99.90
19242;DHT22;9755;47.790;9.620;2022-08-19T03:25:05;16.40;99.90
19242;DHT22;9755;47.790;9.620;2022-08-19T03:27:32;16.40;99.90
19242;DHT22;9755;47.790;9.620;2022-08-19T03:30:00;16.40;99.90
19242;DHT22;9755;47.790;9.620;2022-08-19T03:32:28;16.40;99.90
19242;DHT22;9755;47.790;9.620;2022-08-19T03:34:55;16.40;99.90
19242;DHT22;9755;47.790;9.620;2022-08-19T03:37:23;16.30;99.90
19242;DHT22;9755;47.790;9.620;2022-08-19T03:39:51;16.40;99.90
19242;DHT22;9755;47.790;9.620;2022-08-19T03:42:18;16.30;99.90
19242;DHT22;9755;47.790;9.620;2022-08-19T03:44:45;16.30;99.90
19242;DHT22;9755;47.790;9.620;2022-08-19T03:47:13;16.30;99.90
19242;DHT22;9755;47.790;9.620;2022-08-19T03:49:42;16.30;99.90
19242;DHT22;9755;47.790;9.620;2022-08-19T03:52:10;16.30;99.90
19242;DHT22;9755;47.790;9.620;2022-08-19T03:54:39;16.30;99.90
19242;DHT22;9755;47.790;9.620;2022-08-19T03:57:06;16.40;99.90
19242;DHT22;9755;47.790;9.620;2022-08-19T03:59:38;16.40;99.90
19242;DHT22;9755;47.790;9.620;2022-08-19T04:02:08;16.30;99.90
19242;DHT22;9755;47.790;9.620;2022-08-19T04:04:36;16.30;99.90
19242;DHT22;9755;47.790;9.620;2022-08-19T04:07:03;16.30;99.90
19242;DHT22;9755;47.790;9.620;2022-08-19T04:09:30;16.30;99.90
19242;DHT22;9755;47.790;9.620;2022-08-19T04:11:59;16.30;99.90
19242;DHT22;9755;47.790;9.620;2022-08-19T04:14:28;16.30;99.90
19242;DHT22;9755;47.790;9.620;2022-08-19T04:16:56;16.30;99.90
19242;DHT22;9755;47.790;9.620;2022-08-19T04:19:23;16.30;99.90
19242;DHT22;9755;47.790;9.620;2022-08-19T04:21:52;16.20;99.90
19242;DHT22;9755;47.790;9.620;2022-08-19T04:24:20;16.20;99.90
19242;DHT22;9755;47.790;9.620;2022-08-19T04:26:48;16.10;99.90
19242;DHT22;9755;47.790;9.620;2022-08-19T04:29:18;16.20;99.90
19242;DHT22;9755;47.790;9.620;2022-08-19T04:31:48;16.20;99.90
19242;DHT22;9755;47.790;9.620;2022-08-19T04:34:18;16.30;99.90
19242;DHT22;9755;47.790;9.620;2022-08-19T04:36:48;16.20;99.90
19242;DHT22;9755;47.790;9.620;2022-08-19T04:39:18;16.20;99.90
19242;DHT22;9755;47.790;9.620;2022-08-19T04:41:47;16.20;99.90
19242;DHT22;9755;47.790;9.620;2022-08-19T04:44:34;16.30;99.90
19242;DHT22;9755;47.790;9.620;2022-08-19T04:47:02;16.30;99.90
19242;DHT22;9755;47.790;9.620;2022-08-19T04:49:31;16.30;99.90
19242;DHT22;9755;47.790;9.620;2022-08-19T04:51:59;16.40;99.90
19242;DHT22;9755;47.790;9.620;2022-08-19T04:54:26;16.40;99.90
19242;DHT22;9755;47.790;9.620;2022-08-19T04:56:53;16.40;99.90
19242;DHT22;9755;47.790;9.620;2022-08-19T04:59:20;16.60;99.90
19242;DHT22;9755;47.790;9.620;2022-08-19T05:01:49;16.50;99.90
19242;DHT22;9755;47.790;9.620;2022-08-19T05:04:18;16.60;99.90
19242;DHT22;9755;47.790;9.620;2022-08-19T05:06:46;16.60;99.90
19242;DHT22;9755;47.790;9.620;2022-08-19T05:09:14;16.60;99.90
19242;DHT22;9755;47.790;9.620;2022-08-19T05:11:42;16.60;99.90
19242;DHT22;9755;47.790;9.620;2022-08-19T05:14:10;16.60;99.90
19242;DHT22;9755;47.790;9.620;2022-08-19T05:16:39;16.70;99.90
19242;DHT22;9755;47.790;9.620;2022-08-19T05:19:07;16.80;99.90
19242;DHT22;9755;47.790;9.620;2022-08-19T05:21:54;16.70;99.90
19242;DHT22;9755;47.790;9.620;2022-08-19T05:24:39;16.70;99.90
19242;DHT22;9755;47.790;9.620;2022-08-19T05:27:06;16.70;99.90
19242;DHT22;9755;47.790;9.620;2022-08-19T05:29:34;16.70;99.90
19242;DHT22;9755;47.790;9.620;2022-08-19T05:32:02;16.70;99.90
19242;DHT22;9755;47.790;9.620;2022-08-19T05:34:31;16.70;99.90
19242;DHT22;9755;47.790;9.620;2022-08-19T05:37:00;16.70;99.90
19242;DHT22;9755;47.790;9.620;2022-08-19T05:39:30;16.60;99.90
19242;DHT22;9755;47.790;9.620;2022-08-19T05:41:59;16.70;99.90
19242;DHT22;9755;47.790;9.620;2022-08-19T05:44:28;16.80;99.90
19242;DHT22;9755;47.790;9.620;2022-08-19T05:46:57;16.90;99.90
19242;DHT22;9755;47.790;9.620;2022-08-19T05:49:25;16.90;99.90
19242;DHT22;9755;47.790;9.620;2022-08-19T05:51:55;16.90;99.90
19242;DHT22;9755;47.790;9.620;2022-08-19T05:54:23;16.90;99.90
19242;DHT22;9755;47.790;9.620;2022-08-19T05:56:51;16.90;99.90
19242;DHT22;9755;47.790;9.620;2022-08-19T05:59:19;16.90;99.90
19242;DHT22;9755;47.790;9.620;2022-08-19T06:01:48;16.90;99.90
19242;DHT22;9755;47.790;9.620;2022-08-19T06:04:18;16.90;99.90
19242;DHT22;9755;47.790;9.620;2022-08-19T06:06:46;17.00;99.90
19242;DHT22;9755;47.790;9.620;2022-08-19T06:09:15;16.90;99.90
19242;DHT22;9755;47.790;9.620;2022-08-19T06:11:45;16.80;99.90
19242;DHT22;9755;47.790;9.620;2022-08-19T06:14:14;16.90;99.90
19242;DHT22;9755;47.790;9.620;2022-08-19T06:16:42;16.80;99.90
19242;DHT22;9755;47.790;9.620;2022-08-19T06:19:12;16.80;99.90
19242;DHT22;9755;47.790;9.620;2022-08-19T06:21:41;16.70;99.90
19242;DHT22;9755;47.790;9.620;2022-08-19T06:24:10;16.70;99.90
19242;DHT22;9755;47.790;9.620;2022-08-19T06:26:41;16.70;99.90
19242;DHT22;9755;47.790;9.620;2022-08-19T06:29:11;16.60;99.90
19242;DHT22;9755;47.790;9.620;2022-08-19T06:31:41;16.70;99.90
19242;DHT22;9755;47.790;9.620;2022-08-19T06:34:09;16.80;99.90
19242;DHT22;9755;47.790;9.620;2022-08-19T06:36:39;16.70;99.90
19242;DHT22;9755;47.790;9.620;2022-08-19T06:39:10;16.80;99.90
19242;DHT22;9755;47.790;9.620;2022-08-19T06:41:41;16.80;99.90
19242;DHT22;9755;47.790;9.620;2022-08-19T06:44:09;16.80;99.90
19242;DHT22;9755;47.790;9.620;2022-08-19T06:46:38;16.80;99.90
19242;DHT22;9755;47.790;9.620;2022-08-19T06:49:05;16.80;99.90
19242;DHT22;9755;47.790;9.620;2022-08-19T06:51:36;16.90;99.90
19242;DHT22;9755;47.790;9.620;2022-08-19T06:54:04;16.90;99.90
19242;DHT22;9755;47.790;9.620;2022-08-19T06:56:32;16.80;99.90
19242;DHT22;9755;47.790;9.620;2022-08-19T06:59:02;16.90;99.90
19242;DHT22;9755;47.790;9.620;2022-08-19T07:01:30;16.90;99.90
19242;DHT22;9755;47.790;9.620;2022-08-19T07:04:00;17.00;99.90
19242;DHT22;9755;47.790;9.620;2022-08-19T07:06:27;16.90;99.90
19242;DHT22;9755;47.790;9.620;2022-08-19T07:08:57;16.90;99.90
19242;DHT22;9755;47.790;9.620;2022-08-19T07:11:24;16.90;99.90
19242;DHT22;9755;47.790;9.620;2022-08-19T07:13:52;16.90;99.90
19242;DHT22;9755;47.790;9.620;2022-08-19T07:16:22;16.90;99.90
19242;DHT22;9755;47.790;9.620;2022-08-19T07:18:50;16.90;99.90
19242;DHT22;9755;47.790;9.620;2022-08-19T07:21:20;17.00;99.90
19242;DHT22;9755;47.790;9.620;2022-08-19T07:23:48;17.00;99.90
19242;DHT22;9755;47.790;9.620;2022-08-19T07:26:17;17.00;99.90
19242;DHT22;9755;47.790;9.620;2022-08-19T07:28:46;17.00;99.90
19242;DHT22;9755;47.790;9.620;2022-08-19T07:31:15;17.00;99.90
19242;DHT22;9755;47.790;9.620;2022-08-19T07:33:46;16.90;99.90
19242;DHT22;9755;47.790;9.620;2022-08-19T07:36:14;16.90;99.90
19242;DHT22;9755;47.790;9.620;2022-08-19T07:38:44;16.90;99.90
19242;DHT22;9755;47.790;9.620;2022-08-19T07:41:15;16.90;99.90
19242;DHT22;9755;47.790;9.620;2022-08-19T07:43:42;17.00;99.90
19242;DHT22;9755;47.790;9.620;2022-08-19T07:46:10;16.90;99.90
19242;DHT22;9755;47.790;9.620;2022-08-19T07:48:40;16.90;99.90
19242;DHT22;9755;47.790;9.620;2022-08-19T07:51:10;17.00;99.90
19242;DHT22;9755;47.790;9.620;2022-08-19T07:53:37;17.10;99.90
19242;DHT22;9755;47.790;9.620;2022-08-19T07:56:05;17.00;99.90
19242;DHT22;9755;47.790;9.620;2022-08-19T07:58:34;17.10;99.90
19242;DHT22;9755;47.790;9.620;2022-08-19T08:01:02;17.00;99.90
19242;DHT22;9755;47.790;9.620;2022-08-19T08:03:30;17.00;99.90
19242;DHT22;9755;47.790;9.620;2022-08-19T08:06:16;16.90;99.90
19242;DHT22;9755;47.790;9.620;2022-08-19T08:08:57;17.00;99.90
19242;DHT22;9755;47.790;9.620;2022-08-19T08:11:45;17.00;99.90
19242;DHT22;9755;47.790;9.620;2022-08-19T08:14:15;17.20;99.90
19242;DHT22;9755;47.790;9.620;2022-08-19T08:16:43;17.20;99.90
19242;DHT22;9755;47.790;9.620;2022-08-19T08:19:11;17.30;99.90
19242;DHT22;9755;47.790;9.620;2022-08-19T08:21:42;17.30;99.90
19242;DHT22;9755;47.790;9.620;2022-08-19T08:24:10;17.30;99.90
19242;DHT22;9755;47.790;9.620;2022-08-19T08:26:38;17.20;99.90
19242;DHT22;9755;47.790;9.620;2022-08-19T08:29:05;17.20;99.90
19242;DHT22;9755;47.790;9.620;2022-08-19T08:31:33;17.20;99.90
19242;DHT22;9755;47.790;9.620;2022-08-19T08:34:01;17.20;99.90
19242;DHT22;9755;47.790;9.620;2022-08-19T08:36:28;17.30;99.90
19242;DHT22;9755;47.790;9.620;2022-08-19T08:39:00;17.30;99.90
19242;DHT22;9755;47.790;9.620;2022-08-19T08:41:34;17.20;99.90
19242;DHT22;9755;47.790;9.620;2022-08-19T08:44:02;17.20;99.90
19242;DHT22;9755;47.790;9.620;2022-08-19T08:46:35;17.20;99.90
19242;DHT22;9755;47.790;9.620;2022-08-19T08:49:06;17.10;99.90
19242;DHT22;9755;47.790;9.620;2022-08-19T08:51:43;17.10;99.90
19242;DHT22;9755;47.790;9.620;2022-08-19T08:54:14;17.10;99.90
19242;DHT22;9755;47.790;9.620;2022-08-19T08:56:44;17.20;99.90
19242;DHT22;9755;47.790;9.620;2022-08-19T08:59:16;17.30;99.90
19242;DHT22;9755;47.790;9.620;2022-08-19T09:01:46;17.20;99.90
19242;DHT22;9755;47.790;9.620;2022-08-19T09:04:13;17.20;99.90
19242;DHT22;9755;47.790;9.620;2022-08-19T09:06:49;17.20;99.90
19242;DHT22;9755;47.790;9.620;2022-08-19T09:09:26;17.30;99.90
19242;DHT22;9755;47.790;9.620;2022-08-19T09:12:04;17.30;99.90
19242;DHT22;9755;47.790;9.620;2022-08-19T09:14:39;17.30;99.90
19242;DHT22;9755;47.790;9.620;2022-08-19T09:17:11;17.20;99.90
19242;DHT22;9755;47.790;9.620;2022-08-19T09:19:52;17.20;99.90
19242;DHT22;9755;47.790;9.620;2022-08-19T09:22:19;17.10;99.90
19242;DHT22;9755;47.790;9.620;2022-08-19T09:24:50;17.10;99.90
19242;DHT22;9755;47.790;9.620;2022-08-19T09:27:17;17.10;99.90
19242;DHT22;9755;47.790;9.620;2022-08-19T09:29:46;17.00;99.90
19242;DHT22;9755;47.790;9.620;2022-08-19T09:32:14;17.00;99.90
19242;DHT22;9755;47.790;9.620;2022-08-19T09:34:42;17.10;99.90
19242;DHT22;9755;47.790;9.620;2022-08-19T09:37:10;17.20;99.90
19242;DHT22;9755;47.790;9.620;2022-08-19T09:39:37;17.20;99.90
19242;DHT22;9755;47.790;9.620;2022-08-19T09:42:08;17.10;99.90
19242;DHT22;9755;47.790;9.620;2022-08-19T09:44:38;17.10;99.90
19242;DHT22;9755;47.790;9.620;2022-08-19T09:47:05;17.20;99.90
19242;DHT22;9755;47.790;9.620;2022-08-19T09:49:33;17.20;99.90
19242;DHT22;9755;47.790;9.620;2022-08-19T09:52:01;17.10;99.90
19242;DHT22;9755;47.790;9.620;2022-08-19T09:54:28;17.10;99.90
19242;DHT22;9755;47.790;9.620;2022-08-19T09:56:57;17.10;99.90
19242;DHT22;9755;47.790;9.620;2022-08-19T09:59:28;17.10;99.90
19242;DHT22;9755;47.790;9.620;2022-08-19T10:01:55;17.10;99.90
19242;DHT22;9755;47.790;9.620;2022-08-19T10:04:23;17.00;99.90
19242;DHT22;9755;47.790;9.620;2022-08-19T10:07:10;17.10;99.90
19242;DHT22;9755;47.790;9.620;2022-08-19T10:09:37;17.10;99.90
19242;DHT22;9755;47.790;9.620;2022-08-19T10:12:07;17.10;99.90
19242;DHT22;9755;47.790;9.620;2022-08-19T10:14:37;17.20;99.90
19242;DHT22;9755;47.790;9.620;2022-08-19T10:17:05;17.10;99.90
19242;DHT22;9755;47.790;9.620;2022-08-19T10:19:32;17.20;99.90
19242;DHT22;9755;47.790;9.620;2022-08-19T10:22:04;17.20;99.90
19242;DHT22;9755;47.790;9.620;2022-08-19T10:24:32;17.20;99.90
19242;DHT22;9755;47.790;9.620;2022-08-19T10:27:00;17.10;99.90
19242;DHT22;9755;47.790;9.620;2022-08-19T10:29:29;17.10;99.90
19242;DHT22;9755;47.790;9.620;2022-08-19T10:31:59;17.20;99.90
19242;DHT22;9755;47.790;9.620;2022-08-19T10:34:27;17.20;99.90
19242;DHT22;9755;47.790;9.620;2022-08-19T10:36:55;17.20;99.90
19242;DHT22;9755;47.790;9.620;2022-08-19T10:39:23;17.20;99.90
19242;DHT22;9755;47.790;9.620;2022-08-19T10:41:50;17.30;99.90
19242;DHT22;9755;47.790;9.620;2022-08-19T10:44:17;17.30;99.90
19242;DHT22;9755;47.790;9.620;2022-08-19T10:46:45;17.40;99.90
19242;DHT22;9755;47.790;9.620;2022-08-19T10:49:14;17.20;99.90
19242;DHT22;9755;47.790;9.620;2022-08-19T10:51:42;17.30;99.90
19242;DHT22;9755;47.790;9.620;2022-08-19T10:54:27;17.30;99.90
19242;DHT22;9755;47.790;9.620;2022-08-19T10:57:08;17.40;99.90
19242;DHT22;9755;47.790;9.620;2022-08-19T10:59:35;17.40;99.90
19242;DHT22;9755;47.790;9.620;2022-08-19T11:02:05;17.40;99.90
19242;DHT22;9755;47.790;9.620;2022-08-19T11:04:34;17.50;99.90
19242;DHT22;9755;47.790;9.620;2022-08-19T11:07:01;17.50;99.90
19242;DHT22;9755;47.790;9.620;2022-08-19T11:09:29;17.50;99.90
19242;DHT22;9755;47.790;9.620;2022-08-19T11:11:56;17.50;99.90
19242;DHT22;9755;47.790;9.620;2022-08-19T11:14:24;17.50;99.90
19242;DHT22;9755;47.790;9.620;2022-08-19T11:16:52;17.50;99.90
19242;DHT22;9755;47.790;9.620;2022-08-19T11:19:21;17.70;99.90
19242;DHT22;9755;47.790;9.620;2022-08-19T11:21:52;17.70;99.90
19242;DHT22;9755;47.790;9.620;2022-08-19T11:24:21;17.60;99.90
19242;DHT22;9755;47.790;9.620;2022-08-19T11:26:50;17.60;99.90
19242;DHT22;9755;47.790;9.620;2022-08-19T11:29:20;17.50;99.90
19242;DHT22;9755;47.790;9.620;2022-08-19T11:31:49;17.40;99.90
19242;DHT22;9755;47.790;9.620;2022-08-19T11:34:19;17.50;99.90
19242;DHT22;9755;47.790;9.620;2022-08-19T11:36:47;17.70;99.90
19242;DHT22;9755;47.790;9.620;2022-08-19T11:39:20;17.80;99.90
19242;DHT22;9755;47.790;9.620;2022-08-19T11:41:48;17.90;99.90
19242;DHT22;9755;47.790;9.620;2022-08-19T11:44:15;18.10;99.90
19242;DHT22;9755;47.790;9.620;2022-08-19T11:46:44;17.90;99.90
19242;DHT22;9755;47.790;9.620;2022-08-19T11:49:12;18.00;99.90
19242;DHT22;9755;47.790;9.620;2022-08-19T11:51:40;17.90;99.90
19242;DHT22;9755;47.790;9.620;2022-08-19T11:54:09;18.00;99.90
19242;DHT22;9755;47.790;9.620;2022-08-19T11:56:38;17.90;99.90
19242;DHT22;9755;47.790;9.620;2022-08-19T11:59:06;18.00;99.90
19242;DHT22;9755;47.790;9.620;2022-08-19T12:01:34;18.20;99.90
19242;DHT22;9755;47.790;9.620;2022-08-19T12:04:01;18.30;99.90
19242;DHT22;9755;47.790;9.620;2022-08-19T12:06:31;18.20;99.90
19242;DHT22;9755;47.790;9.620;2022-08-19T12:09:02;18.10;99.90
19242;DHT22;9755;47.790;9.620;2022-08-19T12:11:30;17.90;99.90
19242;DHT22;9755;47.790;9.620;2022-08-19T12:13:58;18.00;99.90
19242;DHT22;9755;47.790;9.620;2022-08-19T12:16:27;17.90;99.90
19242;DHT22;9755;47.790;9.620;2022-08-19T12:18:55;18.20;99.90
19242;DHT22;9755;47.790;9.620;2022-08-19T12:21:26;18.10;99.90
19242;DHT22;9755;47.790;9.620;2022-08-19T12:23:56;18.10;99.90
19242;DHT22;9755;47.790;9.620;2022-08-19T12:26:25;18.10;99.90
19242;DHT22;9755;47.790;9.620;2022-08-19T12:28:52;18.20;99.90
19242;DHT22;9755;47.790;9.620;2022-08-19T12:31:21;18.30;99.90
19242;DHT22;9755;47.790;9.620;2022-08-19T12:33:48;18.40;99.90
19242;DHT22;9755;47.790;9.620;2022-08-19T12:36:18;18.20;99.90
19242;DHT22;9755;47.790;9.620;2022-08-19T12:38:45;18.10;99.90
19242;DHT22;9755;47.790;9.620;2022-08-19T12:41:14;18.10;99.90
19242;DHT22;9755;47.790;9.620;2022-08-19T12:43:44;18.40;99.90
19242;DHT22;9755;47.790;9.620;2022-08-19T12:46:11;18.50;99.90
19242;DHT22;9755;47.790;9.620;2022-08-19T12:48:41;18.60;99.90
19242;DHT22;9755;47.790;9.620;2022-08-19T12:51:12;18.50;99.90
19242;DHT22;9755;47.790;9.620;2022-08-19T12:53:40;18.60;99.90
19242;DHT22;9755;47.790;9.620;2022-08-19T12:56:08;18.50;99.90
19242;DHT22;9755;47.790;9.620;2022-08-19T12:58:36;18.40;99.90
19242;DHT22;9755;47.790;9.620;2022-08-19T13:01:07;18.50;99.90
19242;DHT22;9755;47.790;9.620;2022-08-19T13:03:36;18.60;99.90
19242;DHT22;9755;47.790;9.620;2022-08-19T13:06:05;18.50;99.90
19242;DHT22;9755;47.790;9.620;2022-08-19T13:08:32;18.60;99.90
19242;DHT22;9755;47.790;9.620;2022-08-19T13:11:07;18.60;99.90
19242;DHT22;9755;47.790;9.620;2022-08-19T13:13:36;18.50;99.90
19242;DHT22;9755;47.790;9.620;2022-08-19T13:16:07;18.60;99.90
19242;DHT22;9755;47.790;9.620;2022-08-19T13:18:35;18.50;99.90
19242;DHT22;9755;47.790;9.620;2022-08-19T13:21:04;18.50;99.90
19242;DHT22;9755;47.790;9.620;2022-08-19T13:23:32;18.50;99.90
19242;DHT22;9755;47.790;9.620;2022-08-19T13:26:02;18.50;99.90
19242;DHT22;9755;47.790;9.620;2022-08-19T13:28:30;18.60;99.90
19242;DHT22;9755;47.790;9.620;2022-08-19T13:31:18;18.70;99.90
19242;DHT22;9755;47.790;9.620;2022-08-19T13:34:03;18.70;99.90
19242;DHT22;9755;47.790;9.620;2022-08-19T13:36:32;18.70;99.90
19242;DHT22;9755;47.790;9.620;2022-08-19T13:38:59;18.80;99.90
19242;DHT22;9755;47.790;9.620;2022-08-19T13:41:27;19.60;99.90
19242;DHT22;9755;47.790;9.620;2022-08-19T13:43:54;19.70;99.90
19242;DHT22;9755;47.790;9.620;2022-08-19T13:46:21;19.60;99.90
19242;DHT22;9755;47.790;9.620;2022-08-19T13:48:48;19.50;99.90
19242;DHT22;9755;47.790;9.620;2022-08-19T13:51:16;19.70;99.90
19242;DHT22;9755;47.790;9.620;2022-08-19T13:53:45;19.90;99.90
19242;DHT22;9755;47.790;9.620;2022-08-19T13:56:13;20.00;99.90
19242;DHT22;9755;47.790;9.620;2022-08-19T13:58:41;20.20;99.90
19242;DHT22;9755;47.790;9.620;2022-08-19T14:01:08;20.00;99.90
19242;DHT22;9755;47.790;9.620;2022-08-19T14:03:36;20.00;99.90
19242;DHT22;9755;47.790;9.620;2022-08-19T14:06:03;19.90;99.90
19242;DHT22;9755;47.790;9.620;2022-08-19T14:08:30;19.80;99.90
19242;DHT22;9755;47.790;9.620;2022-08-19T14:10:59;19.70;99.90
19242;DHT22;9755;47.790;9.620;2022-08-19T14:13:26;19.70;99.90
19242;DHT22;9755;47.790;9.620;2022-08-19T14:15:53;19.60;99.90
19242;DHT22;9755;47.790;9.620;2022-08-19T14:18:20;19.70;99.90
19242;DHT22;9755;47.790;9.620;2022-08-19T14:20:48;19.80;99.90
19242;DHT22;9755;47.790;9.620;2022-08-19T14:23:15;19.70;99.90
19242;DHT22;9755;47.790;9.620;2022-08-19T14:25:43;19.50;99.90
19242;DHT22;9755;47.790;9.620;2022-08-19T14:28:11;19.50;99.90
19242;DHT22;9755;47.790;9.620;2022-08-19T14:30:38;19.50;99.90
19242;DHT22;9755;47.790;9.620;2022-08-19T14:33:06;19.60;99.90
19242;DHT22;9755;47.790;9.620;2022-08-19T14:35:34;19.60;99.90
19242;DHT22;9755;47.790;9.620;2022-08-19T14:38:02;19.70;99.90
19242;DHT22;9755;47.790;9.620;2022-08-19T14:40:31;19.60;99.90
19242;DHT22;9755;47.790;9.620;2022-08-19T14:43:01;19.60;99.90
19242;DHT22;9755;47.790;9.620;2022-08-19T14:45:32;19.60;99.90
19242;DHT22;9755;47.790;9.620;2022-08-19T14:48:00;19.60;99.90
19242;DHT22;9755;47.790;9.620;2022-08-19T14:50:27;19.60;99.90
19242;DHT22;9755;47.790;9.620;2022-08-19T14:52:58;19.60;99.90
19242;DHT22;9755;47.790;9.620;2022-08-19T14:55:26;19.60;99.90
19242;DHT22;9755;47.790;9.620;2022-08-19T14:57:54;19.50;99.90
19242;DHT22;9755;47.790;9.620;2022-08-19T15:00:21;19.50;99.90
19242;DHT22;9755;47.790;9.620;2022-08-19T15:02:51;19.60;99.90
19242;DHT22;9755;47.790;9.620;2022-08-19T15:05:19;19.60;99.90
19242;DHT22;9755;47.790;9.620;2022-08-19T15:07:46;19.70;99.90
19242;DHT22;9755;47.790;9.620;2022-08-19T15:10:14;19.70;99.90
19242;DHT22;9755;47.790;9.620;2022-08-19T15:12:41;19.70;99.90
19242;DHT22;9755;47.790;9.620;2022-08-19T15:15:12;19.70;99.90
19242;DHT22;9755;47.790;9.620;2022-08-19T15:17:40;19.70;99.90
19242;DHT22;9755;47.790;9.620;2022-08-19T15:20:11;19.50;99.90
19242;DHT22;9755;47.790;9.620;2022-08-19T15:22:39;19.50;99.90
19242;DHT22;9755;47.790;9.620;2022-08-19T15:25:09;19.50;99.90
19242;DHT22;9755;47.790;9.620;2022-08-19T15:27:37;19.60;99.90
19242;DHT22;9755;47.790;9.620;2022-08-19T15:30:06;19.70;99.90
19242;DHT22;9755;47.790;9.620;2022-08-19T15:32:33;19.80;99.90
19242;DHT22;9755;47.790;9.620;2022-08-19T15:35:02;19.60;99.90
19242;DHT22;9755;47.790;9.620;2022-08-19T15:37:30;19.60;99.90
19242;DHT22;9755;47.790;9.620;2022-08-19T15:39:57;19.60;99.90
19242;DHT22;9755;47.790;9.620;2022-08-19T15:42:24;19.60;99.90
19242;DHT22;9755;47.790;9.620;2022-08-19T15:44:52;19.60;99.90
19242;DHT22;9755;47.790;9.620;2022-08-19T15:47:19;19.70;99.90
19242;DHT22;9755;47.790;9.620;2022-08-19T15:49:46;19.60;99.90
19242;DHT22;9755;47.790;9.620;2022-08-19T15:52:13;19.60;99.90
19242;DHT22;9755;47.790;9.620;2022-08-19T15:54:42;19.60;99.90
19242;DHT22;9755;47.790;9.620;2022-08-19T15:57:09;19.70;99.90